sensor_id;sensor_type;location;lat;lon;timestamp;pressure;altitude;pressure_sealevel;temperature;humidity
56420;BME280;42323;52.170;7.538;2023-02-19T00:01:34;101165.66;;;8.76;100.00
56420;BME280;42323;52.170;7.538;2023-02-19T00:04:04;101180.13;;;8.88;100.00
56420;BME280;42323;52.170;7.538;2023-02-19T00:06:32;101183.72;;;8.87;100.00
56420;BME280;42323;52.170;7.538;2023-02-19T00:08:59;101162.69;;;8.71;100.00
56420;BME280;42323;52.170;7.538;2023-02-19T00:32:55;101154.25;;;8.77;100.00
56420;BME280;42323;52.170;7.538;2023-02-19T00:35:21;101157.53;;;8.79;100.00
56420;BME280;42323;52.170;7.538;2023-02-19T00:37:48;101157.75;;;8.86;100.00
56420;BME280;42323;52.170;7.538;2023-02-19T00:40:14;101156.41;;;8.82;100.00
56420;BME280;42323;52.170;7.538;2023-02-19T00:42:41;101140.22;;;8.78;100.00
56420;BME280;42323;52.170;7.538;2023-02-19T00:45:07;101113.34;;;8.68;100.00
56420;BME280;42323;52.170;7.538;2023-02-19T00:47:34;101160.56;;;8.92;100.00
56420;BME280;42323;52.170;7.538;2023-02-19T00:50:00;101136.03;;;8.85;100.00
56420;BME280;42323;52.170;7.538;2023-02-19T01:32:50;101107.13;;;8.43;100.00
56420;BME280;42323;52.170;7.538;2023-02-19T01:35:16;101131.13;;;8.64;100.00
56420;BME280;42323;52.170;7.538;2023-02-19T01:37:43;101150.44;;;8.71;100.00
56420;BME280;42323;52.170;7.538;2023-02-19T01:40:09;101162.75;;;8.79;100.00
56420;BME280;42323;52.170;7.538;2023-02-19T01:42:36;101131.78;;;8.66;100.00
56420;BME280;42323;52.170;7.538;2023-02-19T01:45:21;101173.03;;;8.98;100.00
56420;BME280;42323;52.170;7.538;2023-02-19T01:48:28;101171.25;;;8.99;100.00
56420;BME280;42323;52.170;7.538;2023-02-19T01:51:01;101147.31;;;8.86;100.00
56420;BME280;42323;52.170;7.538;2023-02-19T01:53:32;101140.22;;;8.78;100.00
56420;BME280;42323;52.170;7.538;2023-02-19T01:55:59;101167.06;;;8.88;100.00
56420;BME280;42323;52.170;7.538;2023-02-19T01:58:30;101161.84;;;8.88;100.00
56420;BME280;42323;52.170;7.538;2023-02-19T02:00:59;101148.78;;;8.88;100.00
56420;BME280;42323;52.170;7.538;2023-02-19T02:03:28;101135.28;;;8.75;100.00
56420;BME280;42323;52.170;7.538;2023-02-19T02:06:00;101165.34;;;8.97;100.00
56420;BME280;42323;52.170;7.538;2023-02-19T02:08:27;101169.00;;;9.04;100.00
56420;BME280;42323;52.170;7.538;2023-02-19T02:11:14;101139.66;;;8.92;100.00
56420;BME280;42323;52.170;7.538;2023-02-19T02:13:41;101163.53;;;8.97;100.00
56420;BME280;42323;52.170;7.538;2023-02-19T02:19:04;101170.56;;;8.97;100.00
56420;BME280;42323;52.170;7.538;2023-02-19T02:54:10;101170.94;;;8.84;100.00
56420;BME280;42323;52.170;7.538;2023-02-19T02:56:57;101160.75;;;8.73;100.00
56420;BME280;42323;52.170;7.538;2023-02-19T02:59:28;101143.81;;;8.59;100.00
56420;BME280;42323;52.170;7.538;2023-02-19T03:02:06;101150.53;;;8.62;100.00
56420;BME280;42323;52.170;7.538;2023-02-19T03:07:30;101145.31;;;8.62;100.00
56420;BME280;42323;52.170;7.538;2023-02-19T03:10:01;101167.91;;;8.71;100.00
56420;BME280;42323;52.170;7.538;2023-02-19T03:12:31;101166.28;;;8.70;100.00
56420;BME280;42323;52.170;7.538;2023-02-19T03:15:18;101163.75;;;8.60;100.00
56420;BME280;42323;52.170;7.538;2023-02-19T03:18:07;101162.94;;;8.60;100.00
56420;BME280;42323;52.170;7.538;2023-02-19T03:20:55;101163.44;;;8.63;100.00
56420;BME280;42323;52.170;7.538;2023-02-19T03:23:25;101172.25;;;8.62;100.00
56420;BME280;42323;52.170;7.538;2023-02-19T03:26:13;101183.22;;;8.66;100.00
56420;BME280;42323;52.170;7.538;2023-02-19T03:28:44;101192.41;;;8.70;100.00
56420;BME280;42323;52.170;7.538;2023-02-19T03:31:30;101189.72;;;8.62;100.00
56420;BME280;42323;52.170;7.538;2023-02-19T03:34:00;101181.66;;;8.55;100.00
56420;BME280;42323;52.170;7.538;2023-02-19T03:36:33;101199.41;;;8.69;100.00
56420;BME280;42323;52.170;7.538;2023-02-19T03:39:04;101189.25;;;8.66;100.00
56420;BME280;42323;52.170;7.538;2023-02-19T03:47:26;101175.38;;;8.48;100.00
56420;BME280;42323;52.170;7.538;2023-02-19T03:50:01;101178.31;;;8.35;100.00
56420;BME280;42323;52.170;7.538;2023-02-19T04:14:19;101157.78;;;8.04;100.00
56420;BME280;42323;52.170;7.538;2023-02-19T04:17:04;101084.34;;;7.72;99.19
56420;BME280;42323;52.170;7.538;2023-02-19T04:19:36;101175.53;;;8.19;99.28
56420;BME280;42323;52.170;7.538;2023-02-19T04:22:12;101160.81;;;8.00;99.04
56420;BME280;42323;52.170;7.538;2023-02-19T04:24:48;101188.88;;;8.16;99.45
56420;BME280;42323;52.170;7.538;2023-02-19T04:27:15;101234.13;;;8.34;99.22
56420;BME280;42323;52.170;7.538;2023-02-19T04:29:43;101189.84;;;8.15;98.74
56420;BME280;42323;52.170;7.538;2023-02-19T04:32:12;101248.59;;;8.56;97.34
56420;BME280;42323;52.170;7.538;2023-02-19T04:34:39;101261.66;;;8.56;97.50
56420;BME280;42323;52.170;7.538;2023-02-19T04:37:06;101251.94;;;8.48;98.52
56420;BME280;42323;52.170;7.538;2023-02-19T04:39:32;101260.16;;;8.53;98.34
56420;BME280;42323;52.170;7.538;2023-02-19T04:41:59;101262.97;;;8.42;98.42
56420;BME280;42323;52.170;7.538;2023-02-19T04:44:25;101268.19;;;8.42;98.23
56420;BME280;42323;52.170;7.538;2023-02-19T04:46:52;101270.69;;;8.34;98.52
56420;BME280;42323;52.170;7.538;2023-02-19T04:49:18;101293.88;;;8.47;97.55
56420;BME280;42323;52.170;7.538;2023-02-19T04:51:48;101282.91;;;8.43;97.74
56420;BME280;42323;52.170;7.538;2023-02-19T06:03:28;101370.66;;;8.07;97.16
56420;BME280;42323;52.170;7.538;2023-02-19T06:05:54;101387.50;;;8.22;96.38
56420;BME280;42323;52.170;7.538;2023-02-19T06:08:22;101297.16;;;7.65;96.36
56420;BME280;42323;52.170;7.538;2023-02-19T06:10:49;101334.72;;;7.91;95.48
56420;BME280;42323;52.170;7.538;2023-02-19T06:13:17;101325.81;;;7.74;95.93
56420;BME280;42323;52.170;7.538;2023-02-19T06:15:50;101403.88;;;8.15;96.15
56420;BME280;42323;52.170;7.538;2023-02-19T06:18:23;101389.34;;;8.12;94.90
56420;BME280;42323;52.170;7.538;2023-02-19T06:20:50;101390.44;;;8.10;94.78
56420;BME280;42323;52.170;7.538;2023-02-19T06:23:16;101382.06;;;8.06;94.96
56420;BME280;42323;52.170;7.538;2023-02-19T06:25:43;101348.72;;;7.90;94.22
56420;BME280;42323;52.170;7.538;2023-02-19T06:28:18;101420.47;;;8.23;94.48
56420;BME280;42323;52.170;7.538;2023-02-19T06:30:50;101351.75;;;7.76;94.91
56420;BME280;42323;52.170;7.538;2023-02-19T06:33:16;101429.72;;;8.08;95.58
56420;BME280;42323;52.170;7.538;2023-02-19T06:35:43;101412.53;;;8.15;94.97
56420;BME280;42323;52.170;7.538;2023-02-19T06:38:09;101432.97;;;8.20;94.71
56420;BME280;42323;52.170;7.538;2023-02-19T06:40:36;101429.31;;;8.13;94.37
56420;BME280;42323;52.170;7.538;2023-02-19T06:43:02;101436.44;;;8.11;95.23
56420;BME280;42323;52.170;7.538;2023-02-19T06:45:29;101443.72;;;8.07;95.46
56420;BME280;42323;52.170;7.538;2023-02-19T06:47:55;101448.28;;;7.95;95.91
56420;BME280;42323;52.170;7.538;2023-02-19T06:50:22;101451.84;;;8.04;95.98
56420;BME280;42323;52.170;7.538;2023-02-19T07:14:17;101536.53;;;7.21;96.35
56420;BME280;42323;52.170;7.538;2023-02-19T07:16:43;101550.75;;;7.07;97.07
56420;BME280;42323;52.170;7.538;2023-02-19T07:19:13;101540.25;;;6.88;97.57
56420;BME280;42323;52.170;7.538;2023-02-19T07:21:40;101565.00;;;6.82;97.42
56420;BME280;42323;52.170;7.538;2023-02-19T07:24:08;101571.94;;;6.72;97.14
56420;BME280;42323;52.170;7.538;2023-02-19T07:26:35;101567.31;;;6.54;98.36
56420;BME280;42323;52.170;7.538;2023-02-19T07:29:04;101582.34;;;6.51;98.82
56420;BME280;42323;52.170;7.538;2023-02-19T07:31:32;101578.53;;;6.34;98.97
56420;BME280;42323;52.170;7.538;2023-02-19T07:33:58;101596.75;;;6.34;99.17
56420;BME280;42323;52.170;7.538;2023-02-19T07:36:25;101584.38;;;6.26;99.23
56420;BME280;42323;52.170;7.538;2023-02-19T07:38:56;101589.31;;;6.29;100.00
56420;BME280;42323;52.170;7.538;2023-02-19T07:41:24;101606.91;;;6.37;99.23
56420;BME280;42323;52.170;7.538;2023-02-19T07:43:50;101596.44;;;6.27;99.83
56420;BME280;42323;52.170;7.538;2023-02-19T07:51:41;101607.91;;;6.25;100.00
56420;BME280;42323;52.170;7.538;2023-02-19T07:54:09;101623.28;;;6.28;100.00
56420;BME280;42323;52.170;7.538;2023-02-19T07:56:36;101608.50;;;6.17;100.00
56420;BME280;42323;52.170;7.538;2023-02-19T07:59:04;101628.41;;;6.18;100.00
56420;BME280;42323;52.170;7.538;2023-02-19T08:01:30;101634.44;;;6.19;100.00
56420;BME280;42323;52.170;7.538;2023-02-19T08:04:15;101649.91;;;6.20;100.00
56420;BME280;42323;52.170;7.538;2023-02-19T08:06:42;101666.78;;;6.26;100.00
56420;BME280;42323;52.170;7.538;2023-02-19T08:09:12;101654.75;;;6.25;100.00
56420;BME280;42323;52.170;7.538;2023-02-19T08:11:38;101649.31;;;6.17;100.00
56420;BME280;42323;52.170;7.538;2023-02-19T08:19:47;101655.25;;;6.08;100.00
56420;BME280;42323;52.170;7.538;2023-02-19T08:22:13;101662.09;;;6.09;100.00
56420;BME280;42323;52.170;7.538;2023-02-19T08:24:41;101689.88;;;6.19;100.00
56420;BME280;42323;52.170;7.538;2023-02-19T08:27:08;101687.41;;;6.18;100.00
56420;BME280;42323;52.170;7.538;2023-02-19T08:29:35;101697.59;;;6.10;100.00
56420;BME280;42323;52.170;7.538;2023-02-19T08:34:37;101703.84;;;6.07;100.00
56420;BME280;42323;52.170;7.538;2023-02-19T08:37:03;101682.94;;;5.97;100.00
56420;BME280;42323;52.170;7.538;2023-02-19T08:39:31;101680.34;;;5.97;100.00
56420;BME280;42323;52.170;7.538;2023-02-19T08:41:57;101684.34;;;6.01;100.00
56420;BME280;42323;52.170;7.538;2023-02-19T08:44:24;101701.84;;;6.22;100.00
56420;BME280;42323;52.170;7.538;2023-02-19T08:46:50;101701.63;;;6.14;100.00
56420;BME280;42323;52.170;7.538;2023-02-19T08:49:17;101708.94;;;6.09;100.00
56420;BME280;42323;52.170;7.538;2023-02-19T08:51:45;101719.94;;;6.12;100.00
56420;BME280;42323;52.170;7.538;2023-02-19T08:54:12;101697.97;;;5.94;99.52
56420;BME280;42323;52.170;7.538;2023-02-19T08:56:40;101718.03;;;6.03;99.91
56420;BME280;42323;52.170;7.538;2023-02-19T08:59:06;101718.03;;;6.03;99.52
56420;BME280;42323;52.170;7.538;2023-02-19T09:01:33;101704.72;;;5.96;98.23
56420;BME280;42323;52.170;7.538;2023-02-19T09:03:59;101733.19;;;6.09;98.40
56420;BME280;42323;52.170;7.538;2023-02-19T09:06:26;101743.94;;;6.16;98.24
56420;BME280;42323;52.170;7.538;2023-02-19T09:08:53;101711.56;;;5.97;99.31
56420;BME280;42323;52.170;7.538;2023-02-19T09:11:19;101764.25;;;6.33;98.79
56420;BME280;42323;52.170;7.538;2023-02-19T09:16:50;101760.59;;;6.36;98.34
56420;BME280;42323;52.170;7.538;2023-02-19T09:21:52;101775.13;;;6.61;96.64
56420;BME280;42323;52.170;7.538;2023-02-19T09:24:19;101766.09;;;6.65;96.72
56420;BME280;42323;52.170;7.538;2023-02-19T09:26:53;101782.44;;;6.67;95.68
56420;BME280;42323;52.170;7.538;2023-02-19T09:29:24;101790.56;;;6.73;96.17
56420;BME280;42323;52.170;7.538;2023-02-19T09:31:58;101802.31;;;6.79;96.05
56420;BME280;42323;52.170;7.538;2023-02-19T09:34:26;101796.38;;;6.77;96.07
56420;BME280;42323;52.170;7.538;2023-02-19T09:36:53;101793.66;;;6.78;94.85
56420;BME280;42323;52.170;7.538;2023-02-19T09:39:20;101796.38;;;6.77;94.06
56420;BME280;42323;52.170;7.538;2023-02-19T09:41:49;101816.69;;;6.94;93.46
56420;BME280;42323;52.170;7.538;2023-02-19T09:44:31;101812.72;;;7.11;92.49
56420;BME280;42323;52.170;7.538;2023-02-19T09:47:00;101788.09;;;7.15;90.57
56420;BME280;42323;52.170;7.538;2023-02-19T09:49:31;101838.03;;;7.32;89.70
56420;BME280;42323;52.170;7.538;2023-02-19T10:05:12;101886.66;;;7.10;90.96
56420;BME280;42323;52.170;7.538;2023-02-19T10:07:45;101894.09;;;7.15;90.35
56420;BME280;42323;52.170;7.538;2023-02-19T10:12:50;101887.13;;;7.15;90.12
56420;BME280;42323;52.170;7.538;2023-02-19T10:15:44;101899.03;;;7.29;90.34
56420;BME280;42323;52.170;7.538;2023-02-19T10:18:15;101895.00;;;7.36;89.70
56420;BME280;42323;52.170;7.538;2023-02-19T10:20:42;101888.41;;;7.53;89.49
56420;BME280;42323;52.170;7.538;2023-02-19T10:23:13;101880.44;;;7.87;88.39
56420;BME280;42323;52.170;7.538;2023-02-19T10:25:49;101832.31;;;8.31;85.95
56420;BME280;42323;52.170;7.538;2023-02-19T10:28:22;101861.25;;;8.89;83.19
56420;BME280;42323;52.170;7.538;2023-02-19T10:30:57;101885.81;;;9.17;83.57
56420;BME280;42323;52.170;7.538;2023-02-19T10:33:25;101914.56;;;9.08;83.32
56420;BME280;42323;52.170;7.538;2023-02-19T10:38:27;101870.16;;;8.16;85.09
56420;BME280;42323;52.170;7.538;2023-02-19T10:41:00;101905.94;;;8.46;84.90
56420;BME280;42323;52.170;7.538;2023-02-19T10:43:33;101912.91;;;8.66;83.36
56420;BME280;42323;52.170;7.538;2023-02-19T10:46:05;101898.47;;;8.72;83.32
56420;BME280;42323;52.170;7.538;2023-02-19T10:48:40;101939.16;;;9.05;82.05
56420;BME280;42323;52.170;7.538;2023-02-19T10:51:09;101923.38;;;9.16;80.37
56420;BME280;42323;52.170;7.538;2023-02-19T10:54:16;101934.81;;;9.25;79.02
56420;BME280;42323;52.170;7.538;2023-02-19T10:56:44;101935.69;;;9.54;78.29
56420;BME280;42323;52.170;7.538;2023-02-19T11:04:20;101925.69;;;9.19;77.71
56420;BME280;42323;52.170;7.538;2023-02-19T11:06:47;101945.97;;;9.27;77.91
56420;BME280;42323;52.170;7.538;2023-02-19T11:09:36;101914.56;;;9.17;78.15
56420;BME280;42323;52.170;7.538;2023-02-19T11:12:03;101941.88;;;9.63;77.88
56420;BME280;42323;52.170;7.538;2023-02-19T11:14:32;101936.09;;;9.69;77.55
56420;BME280;42323;52.170;7.538;2023-02-19T11:17:01;101949.06;;;9.80;77.77
56420;BME280;42323;52.170;7.538;2023-02-19T11:19:37;101953.44;;;9.99;76.99
56420;BME280;42323;52.170;7.538;2023-02-19T11:22:37;101882.94;;;9.69;75.82
56420;BME280;42323;52.170;7.538;2023-02-19T11:28:00;101938.53;;;10.10;76.44
56420;BME280;42323;52.170;7.538;2023-02-19T11:30:42;101826.75;;;9.53;75.31
56420;BME280;42323;52.170;7.538;2023-02-19T11:35:46;101911.84;;;9.77;74.98
56420;BME280;42323;52.170;7.538;2023-02-19T11:38:20;101858.69;;;9.18;75.50
56420;BME280;42323;52.170;7.538;2023-02-19T11:51:31;101939.38;;;9.42;77.33
56420;BME280;42323;52.170;7.538;2023-02-19T11:57:24;101947.09;;;9.44;77.46
56420;BME280;42323;52.170;7.538;2023-02-19T12:00:11;101956.47;;;9.46;77.73
56420;BME280;42323;52.170;7.538;2023-02-19T12:02:44;101950.97;;;9.59;77.63
56420;BME280;42323;52.170;7.538;2023-02-19T12:11:12;101947.22;;;10.00;73.91
56420;BME280;42323;52.170;7.538;2023-02-19T12:16:37;101960.50;;;9.89;75.14
56420;BME280;42323;52.170;7.538;2023-02-19T12:44:39;101970.38;;;12.08;64.21
56420;BME280;42323;52.170;7.538;2023-02-19T12:47:14;101960.78;;;11.98;65.55
56420;BME280;42323;52.170;7.538;2023-02-19T12:49:57;101967.63;;;12.09;65.03
56420;BME280;42323;52.170;7.538;2023-02-19T12:52:31;101961.13;;;12.47;63.22
56420;BME280;42323;52.170;7.538;2023-02-19T12:55:23;101958.50;;;12.81;62.30
56420;BME280;42323;52.170;7.538;2023-02-19T12:57:52;101961.00;;;12.83;63.16
56420;BME280;42323;52.170;7.538;2023-02-19T13:00:40;101975.19;;;12.64;62.84
56420;BME280;42323;52.170;7.538;2023-02-19T13:03:17;101934.00;;;11.77;62.96
56420;BME280;42323;52.170;7.538;2023-02-19T13:11:28;101935.25;;;10.92;67.59
56420;BME280;42323;52.170;7.538;2023-02-19T13:14:02;101975.41;;;10.92;65.54
56420;BME280;42323;52.170;7.538;2023-02-19T13:16:32;101975.34;;;10.84;67.58
56420;BME280;42323;52.170;7.538;2023-02-19T13:19:03;101993.81;;;10.83;68.02
56420;BME280;42323;52.170;7.538;2023-02-19T13:25:21;101978.22;;;10.53;70.91
56420;BME280;42323;52.170;7.538;2023-02-19T13:27:50;101981.50;;;10.55;70.73
56420;BME280;42323;52.170;7.538;2023-02-19T13:33:21;101995.47;;;10.27;71.24
56420;BME280;42323;52.170;7.538;2023-02-19T13:36:11;101994.22;;;10.12;68.42
56420;BME280;42323;52.170;7.538;2023-02-19T13:38:44;101995.34;;;9.99;69.64
56420;BME280;42323;52.170;7.538;2023-02-19T13:41:35;101944.88;;;9.49;69.56
56420;BME280;42323;52.170;7.538;2023-02-19T13:44:16;101975.19;;;9.51;68.09
56420;BME280;42323;52.170;7.538;2023-02-19T13:46:48;101938.75;;;9.00;68.67
56420;BME280;42323;52.170;7.538;2023-02-19T13:54:32;102018.50;;;9.25;70.34
56420;BME280;42323;52.170;7.538;2023-02-19T13:59:50;102008.94;;;9.04;71.33
56420;BME280;42323;52.170;7.538;2023-02-19T14:07:33;102028.22;;;9.13;69.91
56420;BME280;42323;52.170;7.538;2023-02-19T14:10:01;102012.47;;;8.94;70.15
56420;BME280;42323;52.170;7.538;2023-02-19T14:12:33;102031.06;;;9.00;70.68
56420;BME280;42323;52.170;7.538;2023-02-19T14:21:21;102046.88;;;8.99;72.55
56420;BME280;42323;52.170;7.538;2023-02-19T14:23:53;102044.13;;;9.00;72.32
56420;BME280;42323;52.170;7.538;2023-02-19T14:26:22;101998.34;;;8.75;70.68
56420;BME280;42323;52.170;7.538;2023-02-19T14:28:50;102020.19;;;8.95;68.19
56420;BME280;42323;52.170;7.538;2023-02-19T14:34:57;101930.53;;;8.22;67.74
56420;BME280;42323;52.170;7.538;2023-02-19T14:37:49;101997.91;;;8.70;68.06
56420;BME280;42323;52.170;7.538;2023-02-19T14:40:21;102018.16;;;8.78;68.54
56420;BME280;42323;52.170;7.538;2023-02-19T14:42:50;102007.56;;;8.79;70.79
56420;BME280;42323;52.170;7.538;2023-02-19T14:45:19;102010.47;;;9.07;71.31
56420;BME280;42323;52.170;7.538;2023-02-19T14:47:47;102004.06;;;9.30;71.37
56420;BME280;42323;52.170;7.538;2023-02-19T14:50:25;102004.81;;;9.62;69.93
56420;BME280;42323;52.170;7.538;2023-02-19T14:52:55;102011.56;;;9.74;67.66
56420;BME280;42323;52.170;7.538;2023-02-19T14:55:35;101996.69;;;9.65;67.67
56420;BME280;42323;52.170;7.538;2023-02-19T14:58:14;102008.00;;;9.75;69.60
56420;BME280;42323;52.170;7.538;2023-02-19T15:00:42;101991.06;;;9.89;69.93
56420;BME280;42323;52.170;7.538;2023-02-19T15:03:31;101982.53;;;10.06;68.78
56420;BME280;42323;52.170;7.538;2023-02-19T15:06:11;101936.22;;;9.77;69.13
56420;BME280;42323;52.170;7.538;2023-02-19T15:09:19;101908.00;;;9.52;68.23
56420;BME280;42323;52.170;7.538;2023-02-19T15:11:47;101909.22;;;9.58;69.16
56420;BME280;42323;52.170;7.538;2023-02-19T15:14:21;101951.81;;;9.89;68.93
56420;BME280;42323;52.170;7.538;2023-02-19T15:16:55;101938.69;;;9.79;69.82
56420;BME280;42323;52.170;7.538;2023-02-19T15:19:23;101949.03;;;9.61;70.61
56420;BME280;42323;52.170;7.538;2023-02-19T15:21:50;101927.38;;;9.30;70.93
56420;BME280;42323;52.170;7.538;2023-02-19T15:24:17;101950.50;;;9.25;71.57
56420;BME280;42323;52.170;7.538;2023-02-19T15:26:49;101947.44;;;9.10;71.88
56420;BME280;42323;52.170;7.538;2023-02-19T15:29:19;101939.53;;;8.91;73.47
56420;BME280;42323;52.170;7.538;2023-02-19T15:31:51;101942.97;;;8.82;72.55
56420;BME280;42323;52.170;7.538;2023-02-19T15:34:29;101974.78;;;8.96;71.79
56420;BME280;42323;52.170;7.538;2023-02-19T15:36:58;101986.59;;;8.91;71.84
56420;BME280;42323;52.170;7.538;2023-02-19T15:42:04;101980.78;;;8.57;71.68
56420;BME280;42323;52.170;7.538;2023-02-19T15:45:21;101999.03;;;8.47;73.38
56420;BME280;42323;52.170;7.538;2023-02-19T15:47:32;101983.06;;;8.29;73.70
56420;BME280;42323;52.170;7.538;2023-02-19T15:50:29;101995.50;;;8.37;72.77
56420;BME280;42323;52.170;7.538;2023-02-19T15:53:11;101998.28;;;8.24;73.75
56420;BME280;42323;52.170;7.538;2023-02-19T15:55:44;101995.47;;;8.16;73.89
56420;BME280;42323;52.170;7.538;2023-02-19T15:58:23;101990.50;;;8.13;73.73
56420;BME280;42323;52.170;7.538;2023-02-19T16:00:58;102004.00;;;8.18;74.53
56420;BME280;42323;52.170;7.538;2023-02-19T16:03:27;101995.34;;;8.17;74.88
56420;BME280;42323;52.170;7.538;2023-02-19T16:08:35;102010.94;;;8.08;74.91
56420;BME280;42323;52.170;7.538;2023-02-19T16:11:24;102017.94;;;8.07;75.21
56420;BME280;42323;52.170;7.538;2023-02-19T16:16:42;102001.50;;;7.95;77.12
56420;BME280;42323;52.170;7.538;2023-02-19T16:19:10;101977.84;;;7.76;77.15
56420;BME280;42323;52.170;7.538;2023-02-19T16:21:42;101962.84;;;7.57;77.20
56420;BME280;42323;52.170;7.538;2023-02-19T16:24:33;102013.75;;;7.84;76.03
56420;BME280;42323;52.170;7.538;2023-02-19T16:27:02;101954.97;;;7.36;75.95
56420;BME280;42323;52.170;7.538;2023-02-19T16:29:35;101993.09;;;7.48;76.41
56420;BME280;42323;52.170;7.538;2023-02-19T16:32:05;101990.88;;;7.44;75.47
56420;BME280;42323;52.170;7.538;2023-02-19T16:34:50;101973.03;;;7.17;74.91
56420;BME280;42323;52.170;7.538;2023-02-19T16:37:32;102043.34;;;7.62;75.55
56420;BME280;42323;52.170;7.538;2023-02-19T16:42:37;102017.03;;;7.42;76.28
56420;BME280;42323;52.170;7.538;2023-02-19T16:45:23;102044.44;;;7.48;76.29
56420;BME280;42323;52.170;7.538;2023-02-19T16:47:52;102045.63;;;7.44;77.76
56420;BME280;42323;52.170;7.538;2023-02-19T16:50:24;101963.53;;;6.93;78.66
56420;BME280;42323;52.170;7.538;2023-02-19T16:52:56;102013.28;;;7.24;78.63
56420;BME280;42323;52.170;7.538;2023-02-19T16:55:30;101991.41;;;7.04;78.08
56420;BME280;42323;52.170;7.538;2023-02-19T16:58:03;101997.06;;;7.09;77.77
56420;BME280;42323;52.170;7.538;2023-02-19T17:00:30;102020.25;;;7.12;77.74
56420;BME280;42323;52.170;7.538;2023-02-19T17:03:00;102019.56;;;7.10;77.73
56420;BME280;42323;52.170;7.538;2023-02-19T17:05:35;102026.31;;;7.01;76.78
56420;BME280;42323;52.170;7.538;2023-02-19T17:08:18;102053.22;;;7.13;77.70
56420;BME280;42323;52.170;7.538;2023-02-19T17:10:48;102030.84;;;6.99;78.88
56420;BME280;42323;52.170;7.538;2023-02-19T17:13:21;102072.63;;;7.20;78.25
56420;BME280;42323;52.170;7.538;2023-02-19T17:15:53;102075.84;;;7.24;78.20
56420;BME280;42323;52.170;7.538;2023-02-19T17:18:24;102077.97;;;7.19;78.91
56420;BME280;42323;52.170;7.538;2023-02-19T17:21:13;102086.50;;;7.21;79.41
56420;BME280;42323;52.170;7.538;2023-02-19T17:23:41;102077.28;;;7.17;78.66
56420;BME280;42323;52.170;7.538;2023-02-19T17:26:15;102084.16;;;7.18;78.84
56420;BME280;42323;52.170;7.538;2023-02-19T17:28:42;102083.19;;;7.19;78.20
56420;BME280;42323;52.170;7.538;2023-02-19T17:31:09;102082.72;;;7.25;78.01
56420;BME280;42323;52.170;7.538;2023-02-19T17:33:37;102075.84;;;7.13;78.55
56420;BME280;42323;52.170;7.538;2023-02-19T17:36:04;102078.56;;;7.11;78.78
56420;BME280;42323;52.170;7.538;2023-02-19T17:38:31;102070.13;;;7.08;78.15
56420;BME280;42323;52.170;7.538;2023-02-19T17:41:27;102036.25;;;6.74;78.55
56420;BME280;42323;52.170;7.538;2023-02-19T17:44:08;102005.44;;;6.57;79.08
56420;BME280;42323;52.170;7.538;2023-02-19T17:46:37;102077.03;;;7.09;78.03
56420;BME280;42323;52.170;7.538;2023-02-19T17:49:03;102068.13;;;7.00;77.78
56420;BME280;42323;52.170;7.538;2023-02-19T17:51:30;102073.91;;;7.03;77.91
56420;BME280;42323;52.170;7.538;2023-02-19T17:53:56;102075.34;;;6.96;78.77
56420;BME280;42323;52.170;7.538;2023-02-19T17:56:24;102102.50;;;7.05;78.17
56420;BME280;42323;52.170;7.538;2023-02-19T17:58:52;102091.81;;;6.97;78.38
56420;BME280;42323;52.170;7.538;2023-02-19T18:01:20;102101.19;;;6.99;79.31
56420;BME280;42323;52.170;7.538;2023-02-19T18:03:46;102102.94;;;6.99;78.86
56420;BME280;42323;52.170;7.538;2023-02-19T18:06:13;102099.97;;;7.03;79.10
56420;BME280;42323;52.170;7.538;2023-02-19T18:08:48;102090.97;;;6.85;79.96
56420;BME280;42323;52.170;7.538;2023-02-19T18:11:16;102119.16;;;6.91;80.60
56420;BME280;42323;52.170;7.538;2023-02-19T18:13:42;102106.22;;;6.78;80.43
56420;BME280;42323;52.170;7.538;2023-02-19T18:16:11;102120.56;;;6.84;80.32
56420;BME280;42323;52.170;7.538;2023-02-19T18:18:43;102123.50;;;6.79;80.48
56420;BME280;42323;52.170;7.538;2023-02-19T18:21:11;102090.44;;;6.58;80.69
56420;BME280;42323;52.170;7.538;2023-02-19T18:23:45;102083.31;;;6.48;80.94
56420;BME280;42323;52.170;7.538;2023-02-19T18:26:17;102121.03;;;6.78;81.90
56420;BME280;42323;52.170;7.538;2023-02-19T18:28:49;102039.28;;;6.21;81.80
56420;BME280;42323;52.170;7.538;2023-02-19T18:31:16;102047.13;;;6.33;81.81
56420;BME280;42323;52.170;7.538;2023-02-19T18:33:43;102102.75;;;6.67;82.02
56420;BME280;42323;52.170;7.538;2023-02-19T18:36:10;102114.16;;;6.77;82.03
56420;BME280;42323;52.170;7.538;2023-02-19T18:38:37;102097.91;;;6.62;82.53
56420;BME280;42323;52.170;7.538;2023-02-19T18:41:04;102064.91;;;6.39;83.12
56420;BME280;42323;52.170;7.538;2023-02-19T18:43:35;102053.63;;;6.27;82.68
56420;BME280;42323;52.170;7.538;2023-02-19T18:46:07;102117.56;;;6.66;83.06
56420;BME280;42323;52.170;7.538;2023-02-19T18:48:34;102089.94;;;6.52;83.00
56420;BME280;42323;52.170;7.538;2023-02-19T18:51:01;102125.47;;;6.65;82.63
56420;BME280;42323;52.170;7.538;2023-02-19T18:53:28;102093.72;;;6.48;82.64
56420;BME280;42323;52.170;7.538;2023-02-19T18:55:57;102103.66;;;6.54;82.92
56420;BME280;42323;52.170;7.538;2023-02-19T18:58:44;102126.41;;;6.64;83.24
56420;BME280;42323;52.170;7.538;2023-02-19T19:01:12;102121.34;;;6.62;84.03
56420;BME280;42323;52.170;7.538;2023-02-19T19:03:39;102125.09;;;6.58;83.82
56420;BME280;42323;52.170;7.538;2023-02-19T19:06:06;102125.94;;;6.59;83.87
56420;BME280;42323;52.170;7.538;2023-02-19T19:08:40;102075.63;;;6.23;84.39
56420;BME280;42323;52.170;7.538;2023-02-19T19:11:11;102139.91;;;6.58;84.51
56420;BME280;42323;52.170;7.538;2023-02-19T19:14:02;102101.59;;;6.36;85.31
56420;BME280;42323;52.170;7.538;2023-02-19T19:16:29;102071.94;;;6.25;85.57
56420;BME280;42323;52.170;7.538;2023-02-19T19:18:56;102124.06;;;6.61;85.96
56420;BME280;42323;52.170;7.538;2023-02-19T19:21:24;102121.53;;;6.59;85.62
56420;BME280;42323;52.170;7.538;2023-02-19T19:23:51;102128.31;;;6.62;86.38